sensor_id;sensor_type;location;lat;lon;timestamp;pressure;altitude;pressure_sealevel;temperature;humidity
49723;BME280;43484;43.608;1.458;2023-04-06T00:00:09;100158.38;;;9.60;100.00
49723;BME280;43484;43.608;1.458;2023-04-06T00:02:36;100159.13;;;9.58;100.00
49723;BME280;43484;43.608;1.458;2023-04-06T00:05:03;100158.22;;;9.56;100.00
49723;BME280;43484;43.608;1.458;2023-04-06T00:07:30;100147.16;;;9.57;100.00
49723;BME280;43484;43.608;1.458;2023-04-06T00:09:56;100146.88;;;9.49;100.00
49723;BME280;43484;43.608;1.458;2023-04-06T00:12:23;100145.13;;;9.48;100.00
49723;BME280;43484;43.608;1.458;2023-04-06T00:14:50;100144.94;;;9.44;100.00
49723;BME280;43484;43.608;1.458;2023-04-06T00:17:17;100149.19;;;9.43;100.00
49723;BME280;43484;43.608;1.458;2023-04-06T00:19:43;100146.69;;;9.45;100.00
49723;BME280;43484;43.608;1.458;2023-04-06T00:22:10;100139.72;;;9.41;100.00
49723;BME280;43484;43.608;1.458;2023-04-06T00:24:37;100146.09;;;9.30;100.00
49723;BME280;43484;43.608;1.458;2023-04-06T00:27:03;100141.88;;;9.30;100.00
49723;BME280;43484;43.608;1.458;2023-04-06T00:29:31;100138.03;;;9.19;100.00
49723;BME280;43484;43.608;1.458;2023-04-06T00:31:57;100138.94;;;9.21;100.00
49723;BME280;43484;43.608;1.458;2023-04-06T00:34:24;100132.25;;;9.25;100.00
49723;BME280;43484;43.608;1.458;2023-04-06T00:36:51;100133.75;;;9.20;100.00
49723;BME280;43484;43.608;1.458;2023-04-06T00:39:18;100130.16;;;9.15;100.00
49723;BME280;43484;43.608;1.458;2023-04-06T00:41:49;100124.00;;;9.10;100.00
49723;BME280;43484;43.608;1.458;2023-04-06T00:44:17;100125.75;;;9.11;100.00
49723;BME280;43484;43.608;1.458;2023-04-06T00:46:44;100117.66;;;9.00;100.00
49723;BME280;43484;43.608;1.458;2023-04-06T00:49:11;100121.66;;;8.94;100.00
49723;BME280;43484;43.608;1.458;2023-04-06T00:51:38;100125.88;;;8.93;100.00
49723;BME280;43484;43.608;1.458;2023-04-06T00:54:04;100122.97;;;8.84;100.00
49723;BME280;43484;43.608;1.458;2023-04-06T00:56:31;100119.03;;;8.92;100.00
49723;BME280;43484;43.608;1.458;2023-04-06T00:58:58;100118.09;;;8.90;100.00
49723;BME280;43484;43.608;1.458;2023-04-06T01:01:25;100128.63;;;8.77;100.00
49723;BME280;43484;43.608;1.458;2023-04-06T01:03:53;100118.84;;;8.67;100.00
49723;BME280;43484;43.608;1.458;2023-04-06T01:06:20;100126.63;;;8.70;100.00
49723;BME280;43484;43.608;1.458;2023-04-06T01:08:47;100129.44;;;8.55;100.00
49723;BME280;43484;43.608;1.458;2023-04-06T01:11:13;100130.75;;;8.66;100.00
49723;BME280;43484;43.608;1.458;2023-04-06T01:13:40;100124.69;;;8.64;100.00
49723;BME280;43484;43.608;1.458;2023-04-06T01:16:06;100131.75;;;8.70;100.00
49723;BME280;43484;43.608;1.458;2023-04-06T01:18:33;100129.78;;;8.64;100.00
49723;BME280;43484;43.608;1.458;2023-04-06T01:21:00;100127.19;;;8.63;100.00
49723;BME280;43484;43.608;1.458;2023-04-06T01:23:27;100123.25;;;8.50;100.00
49723;BME280;43484;43.608;1.458;2023-04-06T01:25:54;100131.09;;;8.55;100.00
49723;BME280;43484;43.608;1.458;2023-04-06T01:28:21;100127.72;;;8.56;100.00
49723;BME280;43484;43.608;1.458;2023-04-06T01:30:47;100123.09;;;8.47;100.00
49723;BME280;43484;43.608;1.458;2023-04-06T01:33:14;100126.59;;;8.49;100.00
49723;BME280;43484;43.608;1.458;2023-04-06T01:35:41;100126.53;;;8.48;100.00
49723;BME280;43484;43.608;1.458;2023-04-06T01:38:07;100116.09;;;8.62;100.00
49723;BME280;43484;43.608;1.458;2023-04-06T01:40:34;100118.09;;;8.69;100.00
49723;BME280;43484;43.608;1.458;2023-04-06T01:43:01;100118.41;;;8.77;100.00
49723;BME280;43484;43.608;1.458;2023-04-06T01:45:27;100117.28;;;8.70;100.00
49723;BME280;43484;43.608;1.458;2023-04-06T01:47:54;100114.91;;;8.54;100.00
49723;BME280;43484;43.608;1.458;2023-04-06T01:50:21;100115.22;;;8.41;100.00
49723;BME280;43484;43.608;1.458;2023-04-06T01:52:48;100109.22;;;8.41;100.00
49723;BME280;43484;43.608;1.458;2023-04-06T01:55:14;100108.22;;;8.37;100.00
49723;BME280;43484;43.608;1.458;2023-04-06T01:57:41;100103.19;;;8.39;100.00
49723;BME280;43484;43.608;1.458;2023-04-06T02:00:08;100105.66;;;8.37;100.00
49723;BME280;43484;43.608;1.458;2023-04-06T02:02:35;100100.38;;;8.33;100.00
49723;BME280;43484;43.608;1.458;2023-04-06T02:05:02;100096.75;;;8.28;100.00
49723;BME280;43484;43.608;1.458;2023-04-06T02:07:29;100104.19;;;8.42;100.00
49723;BME280;43484;43.608;1.458;2023-04-06T02:09:56;100096.03;;;8.51;100.00
49723;BME280;43484;43.608;1.458;2023-04-06T02:12:26;100095.31;;;8.34;100.00
49723;BME280;43484;43.608;1.458;2023-04-06T02:14:53;100093.34;;;8.48;100.00
49723;BME280;43484;43.608;1.458;2023-04-06T02:17:19;100093.34;;;8.48;100.00
49723;BME280;43484;43.608;1.458;2023-04-06T02:19:46;100087.13;;;8.41;100.00
49723;BME280;43484;43.608;1.458;2023-04-06T02:22:12;100087.63;;;8.33;100.00
49723;BME280;43484;43.608;1.458;2023-04-06T02:24:39;100090.88;;;8.29;100.00
49723;BME280;43484;43.608;1.458;2023-04-06T02:27:06;100090.78;;;8.27;100.00
49723;BME280;43484;43.608;1.458;2023-04-06T02:29:33;100090.50;;;8.21;100.00
49723;BME280;43484;43.608;1.458;2023-04-06T02:31:59;100093.03;;;8.21;100.00
49723;BME280;43484;43.608;1.458;2023-04-06T02:34:26;100093.69;;;8.17;100.00
49723;BME280;43484;43.608;1.458;2023-04-06T02:36:53;100089.41;;;8.16;100.00
49723;BME280;43484;43.608;1.458;2023-04-06T02:39:19;100085.25;;;8.18;100.00
49723;BME280;43484;43.608;1.458;2023-04-06T02:41:46;100084.19;;;8.13;100.00
49723;BME280;43484;43.608;1.458;2023-04-06T02:44:13;100089.34;;;8.15;100.00
49723;BME280;43484;43.608;1.458;2023-04-06T02:46:39;100087.47;;;8.11;100.00
49723;BME280;43484;43.608;1.458;2023-04-06T02:49:06;100084.84;;;8.09;100.00
49723;BME280;43484;43.608;1.458;2023-04-06T02:51:34;100099.38;;;8.10;100.00
49723;BME280;43484;43.608;1.458;2023-04-06T02:54:00;100110.50;;;8.12;100.00
49723;BME280;43484;43.608;1.458;2023-04-06T02:56:27;100096.88;;;8.12;100.00
49723;BME280;43484;43.608;1.458;2023-04-06T02:58:54;100100.78;;;8.04;100.00
49723;BME280;43484;43.608;1.458;2023-04-06T03:01:20;100103.00;;;8.15;100.00
49723;BME280;43484;43.608;1.458;2023-04-06T03:03:47;100092.34;;;8.24;100.00
49723;BME280;43484;43.608;1.458;2023-04-06T03:06:14;100098.16;;;8.21;100.00
49723;BME280;43484;43.608;1.458;2023-04-06T03:08:41;100093.88;;;8.20;100.00
49723;BME280;43484;43.608;1.458;2023-04-06T03:11:07;100093.41;;;8.29;100.00
49723;BME280;43484;43.608;1.458;2023-04-06T03:13:36;100093.63;;;8.16;100.00
49723;BME280;43484;43.608;1.458;2023-04-06T03:16:05;100087.34;;;8.08;100.00
49723;BME280;43484;43.608;1.458;2023-04-06T03:18:32;100098.84;;;7.98;100.00
49723;BME280;43484;43.608;1.458;2023-04-06T03:20:59;100087.03;;;8.00;100.00
49723;BME280;43484;43.608;1.458;2023-04-06T03:23:27;100088.75;;;8.01;100.00
49723;BME280;43484;43.608;1.458;2023-04-06T03:25:53;100094.41;;;7.94;100.00
49723;BME280;43484;43.608;1.458;2023-04-06T03:28:20;100096.34;;;8.00;100.00
49723;BME280;43484;43.608;1.458;2023-04-06T03:30:47;100090.78;;;8.08;100.00
49723;BME280;43484;43.608;1.458;2023-04-06T03:33:13;100088.81;;;8.03;100.00
49723;BME280;43484;43.608;1.458;2023-04-06T03:35:40;100089.78;;;8.05;100.00
49723;BME280;43484;43.608;1.458;2023-04-06T03:38:07;100088.63;;;7.98;100.00
49723;BME280;43484;43.608;1.458;2023-04-06T03:40:34;100078.63;;;8.03;100.00
49723;BME280;43484;43.608;1.458;2023-04-06T03:43:00;100078.22;;;8.13;100.00
49723;BME280;43484;43.608;1.458;2023-04-06T03:45:27;100082.66;;;7.98;100.00
49723;BME280;43484;43.608;1.458;2023-04-06T03:47:53;100082.06;;;8.03;100.00
49723;BME280;43484;43.608;1.458;2023-04-06T03:50:20;100072.78;;;8.05;100.00
49723;BME280;43484;43.608;1.458;2023-04-06T03:52:47;100068.00;;;8.13;100.00
49723;BME280;43484;43.608;1.458;2023-04-06T03:55:13;100077.47;;;8.15;100.00
49723;BME280;43484;43.608;1.458;2023-04-06T03:57:40;100070.75;;;8.17;100.00
49723;BME280;43484;43.608;1.458;2023-04-06T04:00:08;100077.94;;;8.26;100.00
49723;BME280;43484;43.608;1.458;2023-04-06T04:02:35;100079.84;;;8.30;100.00
49723;BME280;43484;43.608;1.458;2023-04-06T04:05:02;100074.66;;;8.28;100.00
49723;BME280;43484;43.608;1.458;2023-04-06T04:07:29;100081.25;;;8.23;100.00
49723;BME280;43484;43.608;1.458;2023-04-06T04:09:55;100073.91;;;8.31;100.00
49723;BME280;43484;43.608;1.458;2023-04-06T04:12:22;100080.78;;;8.32;100.00
49723;BME280;43484;43.608;1.458;2023-04-06T04:14:49;100082.44;;;8.12;100.00
49723;BME280;43484;43.608;1.458;2023-04-06T04:17:15;100090.38;;;7.99;100.00
49723;BME280;43484;43.608;1.458;2023-04-06T04:19:42;100090.59;;;7.85;100.00
49723;BME280;43484;43.608;1.458;2023-04-06T04:22:09;100085.25;;;7.99;100.00
49723;BME280;43484;43.608;1.458;2023-04-06T04:24:35;100097.00;;;7.96;100.00
49723;BME280;43484;43.608;1.458;2023-04-06T04:27:02;100102.59;;;7.87;100.00
49723;BME280;43484;43.608;1.458;2023-04-06T04:29:29;100092.66;;;7.74;100.00
49723;BME280;43484;43.608;1.458;2023-04-06T04:31:56;100088.91;;;7.85;100.00
49723;BME280;43484;43.608;1.458;2023-04-06T04:34:23;100086.38;;;7.85;100.00
49723;BME280;43484;43.608;1.458;2023-04-06T04:36:52;100084.34;;;7.78;100.00
49723;BME280;43484;43.608;1.458;2023-04-06T04:39:19;100080.84;;;7.76;100.00
49723;BME280;43484;43.608;1.458;2023-04-06T04:41:46;100089.84;;;7.87;100.00
49723;BME280;43484;43.608;1.458;2023-04-06T04:44:12;100082.41;;;7.92;100.00
49723;BME280;43484;43.608;1.458;2023-04-06T04:46:39;100095.47;;;7.99;100.00
49723;BME280;43484;43.608;1.458;2023-04-06T04:49:07;100100.84;;;8.05;100.00
49723;BME280;43484;43.608;1.458;2023-04-06T04:51:34;100097.91;;;8.15;100.00
49723;BME280;43484;43.608;1.458;2023-04-06T04:54:02;100091.84;;;8.13;100.00
49723;BME280;43484;43.608;1.458;2023-04-06T04:56:29;100089.09;;;8.28;100.00
49723;BME280;43484;43.608;1.458;2023-04-06T04:58:56;100084.34;;;8.35;100.00
49723;BME280;43484;43.608;1.458;2023-04-06T05:01:23;100085.00;;;8.31;100.00
49723;BME280;43484;43.608;1.458;2023-04-06T05:03:49;100087.13;;;8.22;100.00
49723;BME280;43484;43.608;1.458;2023-04-06T05:06:17;100092.78;;;8.15;100.00
49723;BME280;43484;43.608;1.458;2023-04-06T05:08:45;100092.38;;;8.06;100.00
49723;BME280;43484;43.608;1.458;2023-04-06T05:11:12;100094.00;;;8.04;100.00
49723;BME280;43484;43.608;1.458;2023-04-06T05:13:39;100101.94;;;7.91;100.00
49723;BME280;43484;43.608;1.458;2023-04-06T05:16:06;100102.44;;;7.84;100.00
49723;BME280;43484;43.608;1.458;2023-04-06T05:18:32;100106.16;;;7.72;100.00
49723;BME280;43484;43.608;1.458;2023-04-06T05:20:59;100108.31;;;7.82;100.00
49723;BME280;43484;43.608;1.458;2023-04-06T05:23:26;100108.25;;;7.80;100.00
49723;BME280;43484;43.608;1.458;2023-04-06T05:25:53;100115.22;;;7.84;100.00
49723;BME280;43484;43.608;1.458;2023-04-06T05:28:19;100115.88;;;7.99;100.00
49723;BME280;43484;43.608;1.458;2023-04-06T05:30:46;100116.50;;;7.94;100.00
49723;BME280;43484;43.608;1.458;2023-04-06T05:33:13;100118.56;;;7.83;100.00
49723;BME280;43484;43.608;1.458;2023-04-06T05:35:40;100116.63;;;7.78;100.00
49723;BME280;43484;43.608;1.458;2023-04-06T05:38:09;100116.47;;;7.75;100.00
49723;BME280;43484;43.608;1.458;2023-04-06T05:40:37;100121.66;;;7.76;100.00
49723;BME280;43484;43.608;1.458;2023-04-06T05:43:07;100127.00;;;7.82;100.00
49723;BME280;43484;43.608;1.458;2023-04-06T05:45:34;100125.28;;;7.81;100.00
49723;BME280;43484;43.608;1.458;2023-04-06T05:48:02;100136.44;;;7.83;100.00
49723;BME280;43484;43.608;1.458;2023-04-06T05:50:29;100137.22;;;7.82;100.00
49723;BME280;43484;43.608;1.458;2023-04-06T05:52:55;100141.91;;;7.73;100.00
49723;BME280;43484;43.608;1.458;2023-04-06T05:55:22;100149.31;;;7.86;100.00
49723;BME280;43484;43.608;1.458;2023-04-06T05:57:49;100142.94;;;7.96;100.00
49723;BME280;43484;43.608;1.458;2023-04-06T06:00:16;100146.44;;;7.98;100.00
49723;BME280;43484;43.608;1.458;2023-04-06T06:02:43;100146.63;;;8.21;100.00
49723;BME280;43484;43.608;1.458;2023-04-06T06:05:10;100147.22;;;8.16;100.00
49723;BME280;43484;43.608;1.458;2023-04-06T06:07:37;100158.81;;;8.27;100.00
49723;BME280;43484;43.608;1.458;2023-04-06T06:10:04;100166.97;;;8.20;100.00
49723;BME280;43484;43.608;1.458;2023-04-06T06:12:31;100161.63;;;8.14;100.00
49723;BME280;43484;43.608;1.458;2023-04-06T06:14:57;100165.16;;;8.17;100.00
49723;BME280;43484;43.608;1.458;2023-04-06T06:17:24;100166.97;;;8.20;100.00
49723;BME280;43484;43.608;1.458;2023-04-06T06:19:51;100168.16;;;8.26;100.00
49723;BME280;43484;43.608;1.458;2023-04-06T06:22:18;100174.69;;;8.21;100.00
49723;BME280;43484;43.608;1.458;2023-04-06T06:24:44;100182.50;;;8.24;100.00
49723;BME280;43484;43.608;1.458;2023-04-06T06:27:12;100181.97;;;8.31;100.00
49723;BME280;43484;43.608;1.458;2023-04-06T06:29:38;100178.34;;;8.45;100.00
49723;BME280;43484;43.608;1.458;2023-04-06T06:32:05;100191.13;;;8.45;100.00
49723;BME280;43484;43.608;1.458;2023-04-06T06:34:32;100194.75;;;8.50;100.00
49723;BME280;43484;43.608;1.458;2023-04-06T06:36:58;100194.00;;;8.53;100.00
49723;BME280;43484;43.608;1.458;2023-04-06T06:39:26;100196.41;;;8.50;100.00
49723;BME280;43484;43.608;1.458;2023-04-06T06:41:53;100201.00;;;8.57;100.00
49723;BME280;43484;43.608;1.458;2023-04-06T06:44:21;100193.31;;;8.57;100.00
49723;BME280;43484;43.608;1.458;2023-04-06T06:46:48;100196.19;;;8.64;100.00
49723;BME280;43484;43.608;1.458;2023-04-06T06:49:14;100197.47;;;8.74;100.00
49723;BME280;43484;43.608;1.458;2023-04-06T06:51:41;100187.47;;;8.99;100.00
49723;BME280;43484;43.608;1.458;2023-04-06T06:54:08;100189.81;;;8.95;100.00
49723;BME280;43484;43.608;1.458;2023-04-06T06:56:35;100191.50;;;8.94;100.00
49723;BME280;43484;43.608;1.458;2023-04-06T06:59:04;100192.47;;;8.98;100.00
49723;BME280;43484;43.608;1.458;2023-04-06T07:01:33;100191.81;;;9.02;100.00
49723;BME280;43484;43.608;1.458;2023-04-06T07:04:01;100194.78;;;8.92;100.00
49723;BME280;43484;43.608;1.458;2023-04-06T07:06:27;100200.16;;;8.98;100.00
49723;BME280;43484;43.608;1.458;2023-04-06T07:08:54;100201.31;;;9.04;100.00
49723;BME280;43484;43.608;1.458;2023-04-06T07:11:21;100190.31;;;9.07;100.00
49723;BME280;43484;43.608;1.458;2023-04-06T07:13:48;100200.78;;;9.13;100.00
49723;BME280;43484;43.608;1.458;2023-04-06T07:16:15;100202.72;;;9.18;100.00
49723;BME280;43484;43.608;1.458;2023-04-06T07:18:42;100207.16;;;9.22;100.00
49723;BME280;43484;43.608;1.458;2023-04-06T07:21:08;100209.72;;;9.22;100.00
49723;BME280;43484;43.608;1.458;2023-04-06T07:23:35;100209.38;;;9.15;100.00
49723;BME280;43484;43.608;1.458;2023-04-06T07:26:01;100214.25;;;9.09;100.00
49723;BME280;43484;43.608;1.458;2023-04-06T07:28:28;100218.00;;;9.17;100.00
49723;BME280;43484;43.608;1.458;2023-04-06T07:30:55;100224.41;;;9.28;100.00
49723;BME280;43484;43.608;1.458;2023-04-06T07:33:22;100235.44;;;8.85;100.00
49723;BME280;43484;43.608;1.458;2023-04-06T07:35:48;100236.31;;;8.67;100.00
49723;BME280;43484;43.608;1.458;2023-04-06T07:38:15;100245.19;;;8.56;100.00
49723;BME280;43484;43.608;1.458;2023-04-06T07:40:42;100242.16;;;8.83;100.00
49723;BME280;43484;43.608;1.458;2023-04-06T07:43:08;100251.75;;;8.89;100.00
49723;BME280;43484;43.608;1.458;2023-04-06T07:45:36;100243.94;;;9.26;100.00
49723;BME280;43484;43.608;1.458;2023-04-06T07:48:02;100239.63;;;9.25;100.00
49723;BME280;43484;43.608;1.458;2023-04-06T07:50:29;100253.78;;;9.37;100.00
49723;BME280;43484;43.608;1.458;2023-04-06T07:52:56;100246.84;;;9.35;100.00
49723;BME280;43484;43.608;1.458;2023-04-06T07:55:24;100242.00;;;9.63;100.00
49723;BME280;43484;43.608;1.458;2023-04-06T07:57:50;100242.50;;;9.75;100.00
49723;BME280;43484;43.608;1.458;2023-04-06T08:00:17;100245.06;;;9.75;100.00
49723;BME280;43484;43.608;1.458;2023-04-06T08:02:44;100246.94;;;9.79;100.00
49723;BME280;43484;43.608;1.458;2023-04-06T08:05:11;100246.50;;;9.68;100.00
49723;BME280;43484;43.608;1.458;2023-04-06T08:07:38;100239.53;;;9.86;100.00
49723;BME280;43484;43.608;1.458;2023-04-06T08:10:05;100240.38;;;9.85;100.00
49723;BME280;43484;43.608;1.458;2023-04-06T08:12:32;100236.88;;;10.05;100.00
49723;BME280;43484;43.608;1.458;2023-04-06T08:14:59;100245.16;;;10.21;100.00
49723;BME280;43484;43.608;1.458;2023-04-06T08:17:26;100246.16;;;10.24;100.00
49723;BME280;43484;43.608;1.458;2023-04-06T08:19:56;100251.16;;;9.78;100.00
49723;BME280;43484;43.608;1.458;2023-04-06T08:22:23;100261.03;;;10.12;100.00
49723;BME280;43484;43.608;1.458;2023-04-06T08:24:50;100257.03;;;9.98;100.00
49723;BME280;43484;43.608;1.458;2023-04-06T08:27:17;100256.84;;;10.36;100.00
49723;BME280;43484;43.608;1.458;2023-04-06T08:29:44;100258.44;;;10.56;100.00
49723;BME280;43484;43.608;1.458;2023-04-06T08:32:10;100257.84;;;10.63;100.00
49723;BME280;43484;43.608;1.458;2023-04-06T08:34:37;100263.47;;;10.53;100.00
49723;BME280;43484;43.608;1.458;2023-04-06T08:37:04;100264.41;;;10.57;100.00
49723;BME280;43484;43.608;1.458;2023-04-06T08:39:31;100276.13;;;10.50;100.00
49723;BME280;43484;43.608;1.458;2023-04-06T08:42:00;100269.03;;;10.90;100.00
49723;BME280;43484;43.608;1.458;2023-04-06T08:44:29;100270.53;;;10.84;100.00
49723;BME280;43484;43.608;1.458;2023-04-06T08:46:59;100278.03;;;11.03;100.00
49723;BME280;43484;43.608;1.458;2023-04-06T08:49:28;100277.16;;;11.02;100.00
49723;BME280;43484;43.608;1.458;2023-04-06T08:51:55;100276.63;;;10.64;100.00
49723;BME280;43484;43.608;1.458;2023-04-06T08:54:23;100284.97;;;10.82;100.00
49723;BME280;43484;43.608;1.458;2023-04-06T08:56:51;100286.88;;;10.87;100.00
49723;BME280;43484;43.608;1.458;2023-04-06T08:59:19;100284.06;;;10.80;100.00
49723;BME280;43484;43.608;1.458;2023-04-06T09:01:46;100289.19;;;10.80;100.00
49723;BME280;43484;43.608;1.458;2023-04-06T09:04:14;100281.06;;;10.91;100.00
49723;BME280;43484;43.608;1.458;2023-04-06T09:06:41;100274.41;;;11.21;100.00
49723;BME280;43484;43.608;1.458;2023-04-06T09:09:09;100289.19;;;11.03;100.00
49723;BME280;43484;43.608;1.458;2023-04-06T09:11:49;100290.63;;;10.97;100.00
49723;BME280;43484;43.608;1.458;2023-04-06T09:14:17;100292.38;;;11.21;100.00
49723;BME280;43484;43.608;1.458;2023-04-06T09:16:45;100291.75;;;11.28;100.00
49723;BME280;43484;43.608;1.458;2023-04-06T09:19:12;100288.34;;;11.55;100.00
49723;BME280;43484;43.608;1.458;2023-04-06T09:21:39;100290.09;;;11.56;100.00
49723;BME280;43484;43.608;1.458;2023-04-06T09:24:09;100284.81;;;11.51;100.00
49723;BME280;43484;43.608;1.458;2023-04-06T09:26:46;100286.13;;;11.38;100.00
49723;BME280;43484;43.608;1.458;2023-04-06T09:29:24;100287.47;;;11.54;100.00
49723;BME280;43484;43.608;1.458;2023-04-06T09:32:04;100295.44;;;11.62;100.00
49723;BME280;43484;43.608;1.458;2023-04-06T09:34:33;100291.25;;;11.38;100.00
49723;BME280;43484;43.608;1.458;2023-04-06T09:37:00;100287.41;;;11.53;100.00
49723;BME280;43484;43.608;1.458;2023-04-06T09:39:28;100287.94;;;11.68;100.00
49723;BME280;43484;43.608;1.458;2023-04-06T09:41:54;100286.50;;;11.76;100.00
49723;BME280;43484;43.608;1.458;2023-04-06T09:44:23;100284.94;;;11.56;100.00
49723;BME280;43484;43.608;1.458;2023-04-06T09:46:53;100281.53;;;11.80;100.00
49723;BME280;43484;43.608;1.458;2023-04-06T09:49:31;100285.66;;;12.03;100.00
49723;BME280;43484;43.608;1.458;2023-04-06T09:52:02;100284.63;;;11.97;100.00
49723;BME280;43484;43.608;1.458;2023-04-06T09:54:30;100288.75;;;12.20;100.00
49723;BME280;43484;43.608;1.458;2023-04-06T09:57:05;100286.47;;;12.29;100.00
49723;BME280;43484;43.608;1.458;2023-04-06T10:06:04;100289.38;;;12.41;100.00
49723;BME280;43484;43.608;1.458;2023-04-06T10:08:30;100281.91;;;12.48;100.00
49723;BME280;43484;43.608;1.458;2023-04-06T10:11:00;100286.94;;;12.75;100.00
49723;BME280;43484;43.608;1.458;2023-04-06T10:13:27;100275.41;;;12.92;100.00
49723;BME280;43484;43.608;1.458;2023-04-06T10:15:55;100287.44;;;12.93;100.00
49723;BME280;43484;43.608;1.458;2023-04-06T10:18:22;100287.00;;;12.78;100.00
49723;BME280;43484;43.608;1.458;2023-04-06T10:21:04;100294.69;;;12.47;100.00
49723;BME280;43484;43.608;1.458;2023-04-06T10:23:35;100301.16;;;12.06;100.00
49723;BME280;43484;43.608;1.458;2023-04-06T10:26:03;100300.56;;;12.15;100.00
49723;BME280;43484;43.608;1.458;2023-04-06T10:28:34;100297.00;;;12.10;100.00
49723;BME280;43484;43.608;1.458;2023-04-06T10:31:05;100304.31;;;12.26;100.00
49723;BME280;43484;43.608;1.458;2023-04-06T10:33:32;100300.53;;;12.41;100.00
49723;BME280;43484;43.608;1.458;2023-04-06T10:36:12;100295.81;;;12.27;100.00
49723;BME280;43484;43.608;1.458;2023-04-06T10:38:41;100292.25;;;12.22;100.00
49723;BME280;43484;43.608;1.458;2023-04-06T10:41:09;100281.97;;;12.51;100.00
49723;BME280;43484;43.608;1.458;2023-04-06T10:43:38;100271.41;;;12.71;100.00
49723;BME280;43484;43.608;1.458;2023-04-06T10:46:07;100281.38;;;12.60;100.00
49723;BME280;43484;43.608;1.458;2023-04-06T10:48:40;100280.72;;;12.67;100.00
49723;BME280;43484;43.608;1.458;2023-04-06T10:51:10;100283.38;;;12.70;100.00
49723;BME280;43484;43.608;1.458;2023-04-06T10:53:37;100269.13;;;12.83;100.00
49723;BME280;43484;43.608;1.458;2023-04-06T10:56:10;100272.03;;;12.95;100.00
49723;BME280;43484;43.608;1.458;2023-04-06T10:58:38;100271.00;;;12.88;100.00
49723;BME280;43484;43.608;1.458;2023-04-06T11:01:05;100271.19;;;12.94;100.00
49723;BME280;43484;43.608;1.458;2023-04-06T11:03:42;100268.03;;;13.03;100.00
49723;BME280;43484;43.608;1.458;2023-04-06T11:06:09;100261.03;;;12.99;94.66
49723;BME280;43484;43.608;1.458;2023-04-06T11:08:36;100256.66;;;13.27;94.75
49723;BME280;43484;43.608;1.458;2023-04-06T11:11:13;100259.22;;;13.27;91.48
49723;BME280;43484;43.608;1.458;2023-04-06T11:13:50;100259.53;;;13.39;87.75
49723;BME280;43484;43.608;1.458;2023-04-06T11:18:53;100251.56;;;13.29;85.39
49723;BME280;43484;43.608;1.458;2023-04-06T11:21:33;100258.91;;;13.48;84.73
49723;BME280;43484;43.608;1.458;2023-04-06T11:24:07;100246.28;;;13.58;68.34
49723;BME280;43484;43.608;1.458;2023-04-06T11:26:43;100241.75;;;13.50;77.47
49723;BME280;43484;43.608;1.458;2023-04-06T11:29:11;100237.94;;;13.68;77.38
49723;BME280;43484;43.608;1.458;2023-04-06T11:31:44;100244.06;;;13.73;79.59
49723;BME280;43484;43.608;1.458;2023-04-06T11:34:13;100251.19;;;13.85;85.87
49723;BME280;43484;43.608;1.458;2023-04-06T11:36:40;100240.88;;;13.85;73.49
49723;BME280;43484;43.608;1.458;2023-04-06T11:39:08;100229.00;;;13.92;72.76
49723;BME280;43484;43.608;1.458;2023-04-06T11:41:35;100220.59;;;13.99;72.45
49723;BME280;43484;43.608;1.458;2023-04-06T11:44:02;100221.88;;;14.19;66.53
49723;BME280;43484;43.608;1.458;2023-04-06T11:46:29;100216.88;;;14.25;65.20
49723;BME280;43484;43.608;1.458;2023-04-06T11:49:00;100221.16;;;14.24;71.46
49723;BME280;43484;43.608;1.458;2023-04-06T11:51:27;100215.31;;;14.31;70.13
49723;BME280;43484;43.608;1.458;2023-04-06T11:53:54;100227.38;;;14.34;62.35
49723;BME280;43484;43.608;1.458;2023-04-06T11:56:26;100228.94;;;14.26;57.42
49723;BME280;43484;43.608;1.458;2023-04-06T11:58:58;100216.69;;;14.17;60.67
49723;BME280;43484;43.608;1.458;2023-04-06T12:01:26;100221.63;;;14.07;58.66
49723;BME280;43484;43.608;1.458;2023-04-06T12:03:53;100211.09;;;14.35;60.58
49723;BME280;43484;43.608;1.458;2023-04-06T12:06:20;100213.63;;;14.75;60.98
49723;BME280;43484;43.608;1.458;2023-04-06T12:08:47;100207.41;;;14.67;61.47
49723;BME280;43484;43.608;1.458;2023-04-06T12:11:14;100201.16;;;14.53;63.17
49723;BME280;43484;43.608;1.458;2023-04-06T12:13:40;100204.75;;;14.61;62.84
49723;BME280;43484;43.608;1.458;2023-04-06T12:16:07;100209.75;;;14.99;52.64
49723;BME280;43484;43.608;1.458;2023-04-06T12:18:34;100207.50;;;14.70;53.80
49723;BME280;43484;43.608;1.458;2023-04-06T12:21:00;100206.84;;;14.80;52.97
49723;BME280;43484;43.608;1.458;2023-04-06T12:23:27;100190.38;;;14.73;52.87
49723;BME280;43484;43.608;1.458;2023-04-06T12:25:53;100195.34;;;14.63;54.06
49723;BME280;43484;43.608;1.458;2023-04-06T12:28:21;100198.59;;;15.02;51.21
49723;BME280;43484;43.608;1.458;2023-04-06T12:30:50;100196.69;;;14.90;47.87
49723;BME280;43484;43.608;1.458;2023-04-06T12:33:17;100193.66;;;15.14;45.59
49723;BME280;43484;43.608;1.458;2023-04-06T12:35:44;100199.97;;;15.31;42.66
49723;BME280;43484;43.608;1.458;2023-04-06T12:38:10;100204.03;;;15.69;44.94
49723;BME280;43484;43.608;1.458;2023-04-06T12:40:38;100195.69;;;15.32;45.40
49723;BME280;43484;43.608;1.458;2023-04-06T12:43:06;100197.41;;;15.31;45.35
49723;BME280;43484;43.608;1.458;2023-04-06T12:45:33;100186.72;;;15.10;45.63
49723;BME280;43484;43.608;1.458;2023-04-06T12:47:59;100191.69;;;15.47;46.06
49723;BME280;43484;43.608;1.458;2023-04-06T12:50:26;100194.13;;;15.40;44.60
49723;BME280;43484;43.608;1.458;2023-04-06T12:52:53;100189.66;;;15.31;45.59
49723;BME280;43484;43.608;1.458;2023-04-06T12:55:19;100178.84;;;15.52;44.71
49723;BME280;43484;43.608;1.458;2023-04-06T12:57:47;100183.59;;;15.31;45.25